La Verne, CA (91750)

4:12 AM PDT on July 26, 2016 (GMT -0700)
North La Verne | | Change Station

Elev 1181 ft 34.12 °N, 117.77 °W | Updated 9 minutes ago

Partly Cloudy
Partly Cloudy
68.9 °F
Feels Like 68.9 °F
N
1.7
Wind Variable Wind from WNW

Today
High -- | Low -- °F
--% Chance of Precip.
Yesterday
High -- | Low -- °F
Precip. -- in
Pressure 29.86 in
Visibility 10.0 miles
Clouds Few 15000 ft
Few 25000 ft
Dew Point 62 °F
Humidity 80%
Rainfall 0.00 in
Snow Depth Not available.
5:58 AM 7:56 PM
Waning Gibbous, 56% visible
METAR KONT 261053Z 00000KT 10SM FEW150 FEW250 23/15 A2992 RMK AO2 SLP109 T02280150
Pressure 29.86 in
Visibility 10.0 miles
Clouds Few 15000 ft
Few 25000 ft
Dew Point 62 °F
Humidity 80%
Rainfall 0.00 in
Snow Depth Not available.
5:58 AM 7:56 PM
Waning Gibbous, 56% visible
METAR KONT 261053Z 00000KT 10SM FEW150 FEW250 23/15 A2992 RMK AO2 SLP109 T02280150

10-Day Weather Forecast

Almanac

Astronomy

Jul. 26, 2016 Rise Set
Actual Time
Civil Twilight
Nautical Twilight
Astronomical Twilight
Moon
Length of Visible Light
Length of Day
Tomorrow will be .
, % of the Moon is Illuminated

Today's Extremes

State Highs State Lows

Community

WunderPhotos

Upload Photos

1,927,572 photos uploaded!

WunderBlog® & News

Nearby

Air Quality

  Air Quality AQ Index Pollutant
Not available.

Snow Depth

Station Depth Elevation

Earthquake Activity

City Distance Mag. Time & Date
Minimum magnitude displayed is 2.5.

Coastal Water Temperatures

Place Temperature

Stations

Nearby Weather Stations

Station Location Temp. Windchill Dew Point Humidity Wind Precip. Elev Updated Type
                   

Watches & Warnings

There are currently no watches in effect.